Time;durP1;ratioP1;P1;durP2;ratioP2;P2;SDS_P1;SDS_P2;PMS_P1;PMS_P2;Temp;Humidity;BMP_temperature;BMP_pressure;BME280_temperature;BME280_humidity;BME280_pressure;Samples;Min_cycle;Max_cycle;Signal;HPM_P1;HPM_P2
2021/04/13 00:01:14;;;;;;;5.30;4.53;;;2.40;97.30;;;;;;5017768;28;20557;-85
2021/04/13 00:03:46;;;;;;;7.53;5.70;;;2.30;97.30;;;;;;5017609;28;20985;-84
2021/04/13 00:06:13;;;;;;;16.00;5.83;;;2.30;97.30;;;;;;5009999;28;20420;-84
2021/04/13 00:08:40;;;;;;;8.77;5.80;;;2.20;97.30;;;;;;5016859;28;20419;-85
2021/04/13 00:11:10;;;;;;;10.50;5.97;;;2.20;97.30;;;;;;5017990;28;20513;-84
2021/04/13 00:13:40;;;;;;;9.03;5.57;;;2.20;97.30;;;;;;5018225;28;20423;-84
2021/04/13 00:16:09;;;;;;;12.40;5.87;;;2.20;97.30;;;;;;5017781;28;20481;-85
2021/04/13 00:18:35;;;;;;;8.97;5.80;;;2.20;97.30;;;;;;5018035;28;20426;-84
2021/04/13 00:21:16;;;;;;;10.50;6.10;;;2.20;97.30;;;;;;5010358;28;20439;-84
2021/04/13 00:23:43;;;;;;;8.50;5.40;;;2.20;97.30;;;;;;5010830;28;20446;-84
2021/04/13 00:26:17;;;;;;;10.47;6.20;;;2.20;97.30;;;;;;5019432;28;20702;-85
2021/04/13 00:28:45;;;;;;;7.47;5.40;;;2.20;97.30;;;;;;5037190;28;20418;-84
2021/04/13 00:31:39;;;;;;;8.13;5.30;;;2.10;97.30;;;;;;5018944;28;20466;-84
2021/04/13 00:34:26;;;;;;;9.43;6.07;;;2.10;97.30;;;;;;5036788;28;20423;-85
2021/04/13 00:36:55;;;;;;;12.20;6.00;;;2.10;97.30;;;;;;5018672;28;20407;-84
2021/04/13 00:39:27;;;;;;;8.87;5.67;;;2.10;97.30;;;;;;5018883;28;20506;-84
2021/04/13 00:41:59;;;;;;;8.23;5.70;;;2.10;97.30;;;;;;5018865;28;20445;-84
2021/04/13 00:44:26;;;;;;;8.30;5.33;;;2.10;97.30;;;;;;5018092;28;20531;-84
2021/04/13 00:47:00;;;;;;;12.13;4.93;;;2.10;97.30;;;;;;5012143;28;20451;-83
2021/04/13 00:49:31;;;;;;;9.40;5.67;;;2.10;97.30;;;;;;5001621;28;20432;-84
2021/04/13 00:52:19;;;;;;;11.13;5.47;;;2.00;97.30;;;;;;5004595;28;21089;-84
2021/04/13 00:54:48;;;;;;;9.63;6.07;;;2.00;97.30;;;;;;5016818;28;20539;-86
2021/04/13 00:57:19;;;;;;;8.40;5.40;;;2.00;97.30;;;;;;5011806;28;20957;-84
2021/04/13 00:59:46;;;;;;;9.87;5.20;;;2.00;97.30;;;;;;4998746;28;20396;-84
2021/04/13 01:02:17;;;;;;;10.70;5.20;;;2.00;97.30;;;;;;4997742;28;20432;-85
2021/04/13 01:04:52;;;;;;;8.50;5.53;;;1.90;97.30;;;;;;4997734;28;21273;-84
2021/04/13 01:07:40;;;;;;;13.97;6.80;;;1.90;97.30;;;;;;4997075;28;20577;-84
2021/04/13 01:10:33;;;;;;;9.40;5.87;;;1.90;97.30;;;;;;4996230;28;20443;-84
2021/04/13 01:13:13;;;;;;;13.30;6.40;;;1.90;97.30;;;;;;4996782;28;20413;-85
2021/04/13 01:15:42;;;;;;;8.47;5.40;;;1.80;97.30;;;;;;4996942;28;20423;-84
2021/04/13 01:18:20;;;;;;;8.87;5.80;;;1.80;97.30;;;;;;5014756;28;20918;-84
2021/04/13 01:20:53;;;;;;;9.30;6.00;;;1.80;97.30;;;;;;5014393;28;20583;-84
2021/04/13 01:23:26;;;;;;;13.50;5.90;;;1.80;97.30;;;;;;4997000;28;20911;-84
2021/04/13 01:25:59;;;;;;;11.20;6.60;;;1.70;97.30;;;;;;4996879;28;20403;-84
2021/04/13 01:28:30;;;;;;;12.93;6.00;;;1.80;97.30;;;;;;4996641;28;20877;-84
2021/04/13 01:31:40;;;;;;;15.37;7.23;;;1.80;97.30;;;;;;5013935;28;20959;-84
2021/04/13 01:34:06;;;;;;;8.43;5.30;;;1.80;97.30;;;;;;5013718;28;20428;-84
2021/04/13 01:36:33;;;;;;;11.40;6.03;;;1.80;97.30;;;;;;4996903;28;20530;-84
2021/04/13 01:39:03;;;;;;;11.47;6.73;;;1.80;97.30;;;;;;5015164;28;20409;-84
2021/04/13 01:42:01;;;;;;;9.90;6.23;;;1.80;97.30;;;;;;4997724;28;20439;-84
2021/04/13 01:44:49;;;;;;;14.33;6.30;;;1.80;97.30;;;;;;5016035;28;20440;-84
2021/04/13 01:47:18;;;;;;;9.97;6.30;;;1.70;97.30;;;;;;4998251;28;20442;-84
2021/04/13 01:49:57;;;;;;;12.00;6.07;;;1.70;97.30;;;;;;5015645;28;20478;-84
2021/04/13 01:52:28;;;;;;;13.27;6.77;;;1.70;97.30;;;;;;4997649;28;20436;-84
2021/04/13 01:54:57;;;;;;;10.90;7.10;;;1.60;97.30;;;;;;4997761;28;20420;-84
2021/04/13 01:57:30;;;;;;;9.33;6.23;;;1.60;97.30;;;;;;4997972;28;21173;-84
2021/04/13 02:00:07;;;;;;;9.27;5.57;;;1.60;97.30;;;;;;4997531;28;20400;-84
2021/04/13 02:02:37;;;;;;;10.93;6.60;;;1.50;97.30;;;;;;4996874;28;20396;-84
2021/04/13 02:05:12;;;;;;;9.50;5.97;;;1.50;97.30;;;;;;5014631;28;20455;-84
2021/04/13 02:08:05;;;;;;;10.13;6.00;;;1.50;97.30;;;;;;4996605;28;20425;-84
2021/04/13 02:10:36;;;;;;;12.10;6.97;;;1.50;97.30;;;;;;4996876;28;20700;-84
2021/04/13 02:13:12;;;;;;;9.10;6.20;;;1.50;97.30;;;;;;4997039;28;20413;-85
2021/04/13 02:15:48;;;;;;;10.57;5.90;;;1.40;97.30;;;;;;5014520;28;20487;-84
2021/04/13 02:18:22;;;;;;;12.77;6.33;;;1.40;97.30;;;;;;4996761;28;20479;-84
2021/04/13 02:20:52;;;;;;;11.90;6.70;;;1.40;97.30;;;;;;4997090;28;20508;-84
2021/04/13 02:23:30;;;;;;;10.57;6.30;;;1.30;97.30;;;;;;4996830;28;20986;-84
2021/04/13 02:26:00;;;;;;;11.17;6.93;;;1.30;97.30;;;;;;4995501;28;20413;-84
2021/04/13 02:28:27;;;;;;;12.70;6.13;;;1.30;97.30;;;;;;4995644;28;20412;-84
2021/04/13 02:30:55;;;;;;;10.93;6.30;;;1.20;97.30;;;;;;4995321;28;20515;-83
2021/04/13 02:33:27;;;;;;;9.20;6.70;;;1.20;97.30;;;;;;5013109;28;20405;-84
2021/04/13 02:35:53;;;;;;;13.10;7.07;;;1.20;97.30;;;;;;5013485;28;20397;-84
2021/04/13 02:38:25;;;;;;;12.27;6.70;;;1.20;97.30;;;;;;4995479;28;20416;-84
2021/04/13 02:41:05;;;;;;;11.43;7.13;;;1.20;97.30;;;;;;4995590;28;21180;-84
2021/04/13 02:43:43;;;;;;;14.03;7.40;;;1.20;97.30;;;;;;4995554;28;20408;-84
2021/04/13 02:46:13;;;;;;;16.10;7.40;;;1.10;97.30;;;;;;4995651;28;20416;-84
2021/04/13 02:48:43;;;;;;;11.53;6.63;;;1.10;97.30;;;;;;4995796;28;20470;-84
2021/04/13 02:51:12;;;;;;;11.40;7.53;;;1.10;97.30;;;;;;5013081;28;20428;-84
2021/04/13 02:53:48;;;;;;;12.07;7.30;;;1.10;97.30;;;;;;4995490;28;20857;-84
2021/04/13 02:56:30;;;;;;;10.37;7.10;;;1.10;97.30;;;;;;4996830;28;20427;-84
2021/04/13 02:58:59;;;;;;;8.87;6.47;;;1.10;97.30;;;;;;4996543;28;20416;-84
2021/04/13 03:01:25;;;;;;;13.67;8.00;;;1.00;97.30;;;;;;5014515;28;20458;-84
2021/04/13 03:03:55;;;;;;;13.20;7.00;;;1.00;97.30;;;;;;4997368;28;20492;-84
2021/04/13 03:06:21;;;;;;;14.57;7.90;;;1.00;97.30;;;;;;5000673;28;20414;-84
2021/04/13 03:08:47;;;;;;;13.13;7.53;;;1.00;97.30;;;;;;5000552;28;20426;-84
2021/04/13 03:11:21;;;;;;;11.73;7.03;;;1.00;97.30;;;;;;5000415;28;20503;-85
2021/04/13 03:13:49;;;;;;;11.47;7.53;;;1.00;97.30;;;;;;5001201;28;20502;-84
2021/04/13 03:16:18;;;;;;;12.10;7.47;;;0.90;97.30;;;;;;5018101;28;20407;-85
2021/04/13 03:18:53;;;;;;;14.33;6.97;;;0.90;97.30;;;;;;5017965;28;20448;-85
2021/04/13 03:21:23;;;;;;;12.43;7.73;;;0.90;97.30;;;;;;4999996;28;20962;-84
2021/04/13 03:23:51;;;;;;;13.73;8.60;;;0.90;97.30;;;;;;4999365;28;20460;-85
2021/04/13 03:26:21;;;;;;;12.40;8.60;;;0.90;97.30;;;;;;4999155;28;20412;-84
2021/04/13 03:28:56;;;;;;;16.43;9.07;;;0.90;97.30;;;;;;4999342;28;20415;-84
2021/04/13 03:31:31;;;;;;;11.60;7.60;;;0.90;97.30;;;;;;4999059;28;20485;-85
2021/04/13 03:33:58;;;;;;;12.83;8.27;;;0.90;97.30;;;;;;4998751;28;20495;-85
2021/04/13 03:36:25;;;;;;;12.23;7.80;;;0.80;97.30;;;;;;4999028;28;20420;-84
2021/04/13 03:39:07;;;;;;;15.13;9.07;;;0.80;97.30;;;;;;4998409;28;20412;-85
2021/04/13 03:41:33;;;;;;;13.83;8.57;;;0.80;97.30;;;;;;4998795;28;20446;-83
2021/04/13 03:44:01;;;;;;;18.43;8.23;;;0.80;97.30;;;;;;4998646;28;20455;-84
2021/04/13 03:46:33;;;;;;;13.53;7.80;;;0.80;97.30;;;;;;4998661;28;20426;-84
2021/04/13 03:49:00;;;;;;;13.53;7.93;;;0.80;97.30;;;;;;4997919;28;20407;-84
2021/04/13 03:51:32;;;;;;;14.93;8.67;;;0.80;97.30;;;;;;4997681;28;20506;-84
2021/04/13 03:53:59;;;;;;;15.77;9.23;;;0.70;97.30;;;;;;4997586;28;20409;-85
2021/04/13 03:56:26;;;;;;;16.33;8.60;;;0.70;97.30;;;;;;4998012;28;20412;-85
2021/04/13 03:58:56;;;;;;;16.50;9.00;;;0.70;97.30;;;;;;4997512;28;20420;-85
2021/04/13 04:01:26;;;;;;;15.13;8.60;;;0.70;97.30;;;;;;4997612;28;20531;-84
2021/04/13 04:04:05;;;;;;;14.97;9.10;;;0.80;97.30;;;;;;4997638;28;20483;-84
2021/04/13 04:07:07;;;;;;;13.50;8.27;;;0.80;97.30;;;;;;4997399;28;20484;-83
2021/04/13 04:09:35;;;;;;;12.77;8.23;;;0.70;97.30;;;;;;5015111;28;20395;-83
2021/04/13 04:12:22;;;;;;;16.53;9.27;;;0.70;97.30;;;;;;4996875;28;21097;-83
2021/04/13 04:15:02;;;;;;;15.47;8.10;;;0.60;97.30;;;;;;5014495;28;20412;-83
2021/04/13 04:17:38;;;;;;;11.93;7.73;;;0.50;97.30;;;;;;5004600;28;20442;-84
2021/04/13 04:20:09;;;;;;;13.10;9.00;;;0.50;97.30;;;;;;5005288;28;20505;-84
2021/04/13 04:22:52;;;;;;;17.70;9.07;;;0.50;97.30;;;;;;5015668;28;20455;-84
2021/04/13 04:25:30;;;;;;;15.53;9.30;;;0.50;97.30;;;;;;5017505;28;20466;-84
2021/04/13 04:27:59;;;;;;;17.53;8.77;;;0.50;97.30;;;;;;5035380;28;20901;-84
2021/04/13 04:30:29;;;;;;;16.67;9.70;;;0.50;97.30;;;;;;5018165;28;20442;-84
2021/04/13 04:32:56;;;;;;;14.43;8.33;;;0.50;97.30;;;;;;5018117;28;20411;-83
2021/04/13 04:35:45;;;;;;;15.67;10.13;;;0.50;97.30;;;;;;5018548;28;20510;-84
2021/04/13 04:38:23;;;;;;;18.10;10.30;;;0.50;97.30;;;;;;5018251;28;20450;-84
2021/04/13 04:40:49;;;;;;;25.00;11.67;;;0.50;97.30;;;;;;5018206;28;21064;-84
2021/04/13 04:43:18;;;;;;;31.27;15.83;;;0.50;97.30;;;;;;5017877;28;20506;-84
2021/04/13 04:45:44;;;;;;;31.13;14.80;;;0.50;97.30;;;;;;5018003;28;20217;-83
2021/04/13 04:48:25;;;;;;;32.70;16.97;;;0.60;97.30;;;;;;5020479;28;20797;-84
2021/04/13 04:50:54;;;;;;;31.80;16.90;;;0.60;97.30;;;;;;5041526;28;20199;-84
2021/04/13 04:53:21;;;;;;;29.10;14.30;;;0.70;97.30;;;;;;5058768;28;20404;-85
2021/04/13 04:55:54;;;;;;;28.20;14.23;;;0.70;97.30;;;;;;5046708;28;20416;-84
2021/04/13 04:58:20;;;;;;;32.47;14.00;;;0.70;97.30;;;;;;5017710;28;20415;-84
2021/04/13 05:00:47;;;;;;;23.60;12.67;;;0.80;97.30;;;;;;5015855;28;20439;-83
2021/04/13 05:03:15;;;;;;;25.50;12.30;;;0.80;97.30;;;;;;5034532;28;20877;-84
2021/04/13 05:05:40;;;;;;;23.10;12.90;;;0.80;97.30;;;;;;5016464;28;20467;-84
2021/04/13 05:08:06;;;;;;;22.80;12.50;;;0.90;97.30;;;;;;5034342;28;20827;-84
2021/04/13 05:10:36;;;;;;;23.67;12.93;;;0.90;97.30;;;;;;5036711;23;20208;-87
2021/04/13 05:13:01;;;;;;;25.70;13.30;;;0.90;97.30;;;;;;5010315;28;20528;-74
2021/04/13 05:15:27;;;;;;;24.27;12.63;;;0.90;97.30;;;;;;5015848;28;20453;-74
2021/04/13 05:17:53;;;;;;;28.30;13.17;;;1.00;97.30;;;;;;5013668;28;20184;-74
2021/04/13 05:20:19;;;;;;;21.20;12.00;;;1.00;97.30;;;;;;5013210;28;20553;-74
2021/04/13 05:22:45;;;;;;;23.40;13.10;;;1.00;97.30;;;;;;5013450;28;20517;-75
2021/04/13 05:25:12;;;;;;;19.30;11.57;;;1.00;97.30;;;;;;5012929;28;20566;-74
2021/04/13 05:27:38;;;;;;;22.13;12.13;;;1.00;97.30;;;;;;5030585;28;20426;-72
2021/04/13 05:30:09;;;;;;;25.73;12.80;;;1.10;97.30;;;;;;5012993;28;20839;-72
2021/04/13 05:32:34;;;;;;;23.03;12.43;;;1.10;97.30;;;;;;5030818;28;20925;-72
2021/04/13 05:35:00;;;;;;;22.80;12.00;;;1.10;97.30;;;;;;5030849;28;20469;-72
2021/04/13 05:37:28;;;;;;;23.13;10.97;;;1.10;97.30;;;;;;5012980;28;20180;-74
2021/04/13 05:39:55;;;;;;;26.10;11.97;;;1.20;97.30;;;;;;5013310;28;20967;-73
2021/04/13 05:42:27;;;;;;;21.77;12.50;;;1.20;97.30;;;;;;5012939;28;20489;-74
2021/04/13 05:44:54;;;;;;;25.13;12.37;;;1.30;97.30;;;;;;5013280;28;20451;-74
2021/04/13 05:47:21;;;;;;;24.67;12.93;;;1.30;97.30;;;;;;5013265;28;20953;-74
2021/04/13 05:49:46;;;;;;;28.87;15.07;;;1.30;97.30;;;;;;5012702;28;20529;-73
2021/04/13 05:52:12;;;;;;;21.37;12.50;;;1.40;97.30;;;;;;5012733;28;20431;-74
2021/04/13 05:54:38;;;;;;;24.07;12.33;;;1.40;97.30;;;;;;5030963;28;20175;-74
2021/04/13 05:57:04;;;;;;;39.87;12.50;;;1.40;97.30;;;;;;5013168;28;20218;-74
2021/04/13 05:59:33;;;;;;;24.23;11.60;;;1.50;97.30;;;;;;5012814;28;20365;-74
2021/04/13 06:01:59;;;;;;;23.53;12.40;;;1.50;97.30;;;;;;5013187;28;20442;-74
2021/04/13 06:04:24;;;;;;;25.67;13.30;;;1.60;97.30;;;;;;5013055;28;20459;-74
2021/04/13 06:06:50;;;;;;;24.93;12.20;;;1.60;97.30;;;;;;5030229;28;20421;-74
2021/04/13 06:09:16;;;;;;;21.47;11.30;;;1.70;97.30;;;;;;5012356;28;20173;-73
2021/04/13 06:11:43;;;;;;;26.70;12.13;;;1.80;97.30;;;;;;5030702;28;20212;-73
2021/04/13 06:14:10;;;;;;;27.67;11.70;;;1.80;97.30;;;;;;5013984;28;20893;-73
2021/04/13 06:16:40;;;;;;;21.23;10.90;;;2.00;97.30;;;;;;5012972;28;20414;-74
2021/04/13 06:19:07;;;;;;;25.17;12.80;;;2.00;97.30;;;;;;5027170;28;20419;-73
2021/04/13 06:21:34;;;;;;;22.67;12.10;;;2.10;97.30;;;;;;5029912;28;20469;-72
2021/04/13 06:23:59;;;;;;;28.40;13.70;;;2.20;97.30;;;;;;5011804;28;20447;-73
2021/04/13 06:26:26;;;;;;;22.13;11.63;;;2.20;97.30;;;;;;5011384;28;20434;-73
2021/04/13 06:28:51;;;;;;;22.37;11.90;;;2.30;97.30;;;;;;5008771;28;20250;-74
2021/04/13 06:31:17;;;;;;;22.83;12.17;;;2.40;97.30;;;;;;5030188;28;20459;-73
2021/04/13 06:33:43;;;;;;;34.23;15.47;;;2.50;97.30;;;;;;5013257;28;20243;-73
2021/04/13 06:36:09;;;;;;;23.03;13.03;;;2.60;97.30;;;;;;5030010;28;20262;-73
2021/04/13 06:38:38;;;;;;;26.50;12.10;;;2.70;97.30;;;;;;5011862;28;20172;-74
2021/04/13 06:41:45;;;;;;;24.50;11.90;;;2.80;97.30;;;;;;5015992;28;20439;-73
2021/04/13 06:44:39;;;;;;;21.03;11.50;;;2.90;97.30;;;;;;5032479;28;20450;-74
2021/04/13 06:47:23;;;;;;;24.27;11.33;;;3.00;97.30;;;;;;5015360;28;20472;-75
2021/04/13 06:50:03;;;;;;;22.53;11.03;;;3.20;97.30;;;;;;5015287;28;20464;-75
2021/04/13 06:52:55;;;;;;;20.37;10.83;;;3.40;97.30;;;;;;5033327;28;20427;-75
2021/04/13 06:55:59;;;;;;;25.80;12.03;;;3.50;97.30;;;;;;5016254;28;20439;-75
2021/04/13 06:58:35;;;;;;;21.83;10.60;;;3.60;97.30;;;;;;5016151;28;20413;-75
2021/04/13 07:01:04;;;;;;;19.90;10.40;;;3.60;97.30;;;;;;5012518;28;20443;-75
2021/04/13 07:03:31;;;;;;;21.10;9.90;;;3.70;97.30;;;;;;5015299;28;20450;-75
2021/04/13 07:06:48;;;;;;;20.00;10.57;;;3.70;97.30;;;;;;5015831;28;20446;-75
2021/04/13 07:09:33;;;;;;;18.87;10.03;;;3.80;97.30;;;;;;4982659;28;20973;-75
2021/04/13 07:12:25;;;;;;;16.47;8.00;;;3.90;97.30;;;;;;5033479;28;20483;-75
2021/04/13 07:15:11;;;;;;;17.37;9.30;;;3.90;97.30;;;;;;5033377;28;20430;-74
2021/04/13 07:17:52;;;;;;;14.70;8.03;;;3.90;97.30;;;;;;5027240;28;20403;-75
2021/04/13 07:20:20;;;;;;;22.03;11.20;;;3.90;97.30;;;;;;5006640;28;20518;-74
2021/04/13 07:23:02;;;;;;;15.77;9.17;;;4.00;97.30;;;;;;4996002;28;20470;-75
2021/04/13 07:25:42;;;;;;;15.03;8.50;;;4.20;97.30;;;;;;4996563;28;20463;-71
2021/04/13 07:28:13;;;;;;;21.20;9.60;;;4.30;97.30;;;;;;5015919;28;20825;-72
2021/04/13 07:30:48;;;;;;;13.97;8.00;;;4.40;97.30;;;;;;4996392;28;20955;-74
2021/04/13 07:33:20;;;;;;;14.33;8.20;;;4.40;97.30;;;;;;5008856;28;20445;-72
2021/04/13 07:35:47;;;;;;;14.37;8.70;;;4.40;97.30;;;;;;5032882;28;20727;-73
2021/04/13 07:38:26;;;;;;;14.87;7.20;;;4.40;97.30;;;;;;5015109;28;20415;-72
2021/04/13 07:41:02;;;;;;;9.00;5.97;;;4.50;97.30;;;;;;5027277;28;20939;-73
2021/04/13 07:43:42;;;;;;;11.10;5.60;;;4.70;97.30;;;;;;4995416;28;20474;-73
2021/04/13 07:46:44;;;;;;;7.77;5.30;;;4.80;97.30;;;;;;4995631;28;20512;-73
2021/04/13 07:49:31;;;;;;;8.50;5.50;;;4.80;97.30;;;;;;4995600;28;20419;-73
2021/04/13 07:51:58;;;;;;;13.07;5.43;;;4.90;97.30;;;;;;4994464;28;20436;-73
2021/04/13 07:55:07;;;;;;;9.07;5.90;;;5.00;97.30;;;;;;4995747;28;20492;-73
2021/04/13 07:57:54;;;;;;;10.10;5.60;;;5.10;97.30;;;;;;4987135;28;20460;-72
2021/04/13 08:00:28;;;;;;;9.43;5.40;;;5.20;97.30;;;;;;5032564;28;20411;-72
2021/04/13 08:03:22;;;;;;;12.20;6.33;;;5.50;97.30;;;;;;5033008;28;20418;-72
2021/04/13 08:05:50;;;;;;;11.40;5.10;;;5.60;97.30;;;;;;5022852;28;20471;-72
2021/04/13 08:08:31;;;;;;;11.37;5.40;;;5.50;97.30;;;;;;5014255;28;20423;-73
2021/04/13 08:11:13;;;;;;;10.63;4.70;;;5.60;96.80;;;;;;5032316;28;20891;-72
2021/04/13 08:13:42;;;;;;;9.23;3.97;;;5.90;97.00;;;;;;5014543;28;20426;-73
2021/04/13 08:16:26;;;;;;;12.43;4.63;;;6.10;96.10;;;;;;5014799;28;20517;-73
2021/04/13 08:18:52;;;;;;;6.10;3.30;;;6.00;95.90;;;;;;5032172;28;20451;-73
2021/04/13 08:21:26;;;;;;;8.93;3.00;;;5.90;95.80;;;;;;5014891;28;20797;-73
2021/04/13 08:23:53;;;;;;;13.57;3.13;;;5.70;95.90;;;;;;5014740;28;20826;-73
2021/04/13 08:26:31;;;;;;;6.10;2.60;;;5.60;96.00;;;;;;5032589;28;20427;-73
2021/04/13 08:29:29;;;;;;;4.90;2.90;;;5.60;96.20;;;;;;5031728;28;20422;-73
2021/04/13 08:35:06;;;;;;;5.47;2.60;;;5.60;95.90;;;;;;5032688;28;20482;-73
2021/04/13 08:38:04;;;;;;;4.83;2.77;;;5.60;95.40;;;;;;5031869;28;20408;-72
2021/04/13 08:40:37;;;;;;;9.90;3.60;;;5.60;96.10;;;;;;5013750;28;20423;-73
2021/04/13 08:43:18;;;;;;;5.80;3.63;;;5.80;95.50;;;;;;5031950;28;20538;-73
2021/04/13 08:45:51;;;;;;;17.20;3.37;;;5.80;95.10;;;;;;5031594;28;20459;-72
2021/04/13 08:48:31;;;;;;;8.17;2.97;;;6.00;95.60;;;;;;5031970;28;20415;-73
2021/04/13 08:51:16;;;;;;;4.97;3.10;;;6.30;94.00;;;;;;5031721;28;20938;-73
2021/04/13 08:53:49;;;;;;;7.13;2.70;;;6.30;92.80;;;;;;5031587;28;20407;-72
2021/04/13 08:56:29;;;;;;;4.07;3.20;;;6.40;92.50;;;;;;5031310;28;20543;-72
2021/04/13 08:59:00;;;;;;;7.90;3.73;;;6.60;92.50;;;;;;5013823;28;20465;-73
2021/04/13 09:01:38;;;;;;;8.47;4.10;;;6.80;92.00;;;;;;5013645;28;20435;-73
2021/04/13 09:04:13;;;;;;;8.60;4.10;;;6.60;92.30;;;;;;5013967;28;20992;-73
2021/04/13 09:06:58;;;;;;;10.17;3.70;;;6.40;92.00;;;;;;5031528;28;20892;-73
2021/04/13 09:09:44;;;;;;;5.40;3.40;;;6.10;93.00;;;;;;5031480;28;20407;-73
2021/04/13 09:12:34;;;;;;;4.87;3.73;;;6.20;93.50;;;;;;5031094;28;20826;-72
2021/04/13 09:14:59;;;;;;;9.00;4.37;;;6.30;93.70;;;;;;5013453;28;20429;-73
2021/04/13 09:17:52;;;;;;;10.70;4.17;;;6.60;92.20;;;;;;5013505;28;20457;-73
2021/04/13 09:20:39;;;;;;;9.70;4.70;;;6.70;92.20;;;;;;5013286;28;20184;-73
2021/04/13 09:23:21;;;;;;;4.63;3.50;;;6.70;92.90;;;;;;5013560;28;20624;-72
2021/04/13 09:26:21;;;;;;;9.17;4.27;;;6.50;91.80;;;;;;5013428;28;20501;-73
2021/04/13 09:28:57;;;;;;;7.00;3.20;;;6.60;92.40;;;;;;5030701;28;20447;-72
2021/04/13 09:31:29;;;;;;;7.43;2.23;;;6.90;92.40;;;;;;5013006;28;20454;-72
2021/04/13 09:34:27;;;;;;;7.57;2.40;;;7.00;90.10;;;;;;5031037;28;20502;-72
2021/04/13 09:37:07;;;;;;;4.23;2.87;;;7.10;90.10;;;;;;4976116;28;20546;-73
2021/04/13 09:39:39;;;;;;;5.70;2.63;;;7.10;88.90;;;;;;5013215;28;21010;-72
2021/04/13 09:42:13;;;;;;;5.13;2.10;;;7.10;88.60;;;;;;5013023;28;20857;-72
2021/04/13 09:45:04;;;;;;;6.30;2.50;;;7.20;89.40;;;;;;5030743;28;20797;-71
2021/04/13 09:47:54;;;;;;;9.57;2.27;;;7.20;88.10;;;;;;5013141;28;20415;-72
2021/04/13 09:50:45;;;;;;;6.47;2.43;;;7.10;89.60;;;;;;5012743;28;20413;-72
2021/04/13 09:53:47;;;;;;;5.03;2.77;;;7.00;90.30;;;;;;5013109;28;20486;-72
2021/04/13 09:56:35;;;;;;;18.20;2.57;;;6.90;90.10;;;;;;4976549;28;20410;-72
2021/04/13 09:59:27;;;;;;;6.23;2.43;;;6.70;90.10;;;;;;5030519;28;20414;-72
2021/04/13 10:02:33;;;;;;;5.00;2.23;;;6.60;91.10;;;;;;5012656;28;20449;-72
2021/04/13 10:05:14;;;;;;;12.33;2.40;;;6.50;91.10;;;;;;5012942;28;20469;-72
2021/04/13 10:07:55;;;;;;;6.30;2.20;;;6.50;91.60;;;;;;5013051;28;20422;-72
2021/04/13 10:10:28;;;;;;;4.90;2.40;;;6.60;91.70;;;;;;5012547;28;20442;-72
2021/04/13 10:13:09;;;;;;;6.47;2.17;;;6.80;92.00;;;;;;5009383;28;20472;-73
2021/04/13 10:16:19;;;;;;;9.57;2.30;;;6.80;91.20;;;;;;5012729;28;20432;-73
2021/04/13 10:19:00;;;;;;;10.10;2.43;;;7.10;90.80;;;;;;4918968;29;20419;-72
2021/04/13 10:22:14;;;;;;;5.10;2.20;;;7.30;90.70;;;;;;4934438;29;20607;-72
2021/04/13 10:24:57;;;;;;;5.53;1.90;;;7.40;88.40;;;;;;4931260;29;20815;-73
2021/04/13 10:27:26;;;;;;;9.93;2.17;;;7.40;88.10;;;;;;5006764;28;20416;-72
2021/04/13 10:30:10;;;;;;;4.77;2.43;;;7.20;88.10;;;;;;5013059;28;20424;-72
2021/04/13 10:32:44;;;;;;;8.60;2.60;;;7.10;89.80;;;;;;5013085;28;20978;-72
2021/04/13 10:35:30;;;;;;;7.60;2.70;;;7.00;89.50;;;;;;5013150;28;20411;-72
2021/04/13 10:38:29;;;;;;;6.30;3.17;;;7.00;88.90;;;;;;4963891;28;20416;-72
2021/04/13 10:41:30;;;;;;;5.23;2.80;;;7.00;89.00;;;;;;4996587;28;20438;-72
2021/04/13 10:44:20;;;;;;;6.90;2.97;;;7.20;88.80;;;;;;5013296;28;20920;-71
2021/04/13 10:47:01;;;;;;;6.30;2.60;;;7.30;89.00;;;;;;5012867;28;20500;-72
2021/04/13 10:49:52;;;;;;;9.73;3.47;;;7.30;88.50;;;;;;5013913;28;20460;-72
2021/04/13 10:52:48;;;;;;;3.67;2.80;;;7.20;88.00;;;;;;5011203;28;20467;-72
2021/04/13 10:55:32;;;;;;;13.50;3.00;;;7.20;87.70;;;;;;5017086;28;20419;-72
2021/04/13 10:58:23;;;;;;;10.60;3.17;;;7.20;89.40;;;;;;5009275;28;20423;-71
2021/04/13 11:01:15;;;;;;;7.00;2.50;;;7.20;89.40;;;;;;5008235;28;20446;-71
2021/04/13 11:03:59;;;;;;;6.53;2.37;;;7.30;89.80;;;;;;5009618;28;20555;-71
2021/04/13 11:07:02;;;;;;;3.40;2.90;;;7.40;89.20;;;;;;5012330;28;20408;-71
2021/04/13 11:09:48;;;;;;;5.57;2.60;;;7.50;89.40;;;;;;5014942;28;20403;-71
2021/04/13 11:12:34;;;;;;;8.23;2.63;;;7.50;88.90;;;;;;5049543;23;21081;-68
2021/04/13 11:15:17;;;;;;;6.63;3.10;;;7.50;89.10;;;;;;5001315;28;20439;-67
2021/04/13 11:17:56;;;;;;;8.80;3.83;;;7.50;87.60;;;;;;5023615;28;20404;-68
2021/04/13 11:20:33;;;;;;;9.00;3.50;;;7.50;87.60;;;;;;4999333;28;20411;-68
2021/04/13 11:23:37;;;;;;;8.60;3.60;;;7.60;88.00;;;;;;5032386;28;20823;-69
2021/04/13 11:26:18;;;;;;;6.77;2.93;;;7.70;89.00;;;;;;5025179;28;20628;-69
2021/04/13 11:29:08;;;;;;;14.90;4.77;;;7.70;87.80;;;;;;5034856;28;20426;-69
2021/04/13 11:32:01;;;;;;;4.80;2.67;;;7.90;87.90;;;;;;5021557;28;20447;-68
2021/04/13 11:34:42;;;;;;;7.10;3.50;;;8.10;86.70;;;;;;5012349;28;20400;-69
2021/04/13 11:37:26;;;;;;;11.87;3.23;;;8.00;86.80;;;;;;5015267;28;20407;-69
2021/04/13 11:40:24;;;;;;;6.60;3.10;;;8.00;87.30;;;;;;5015424;28;20411;-68
2021/04/13 11:42:55;;;;;;;14.63;5.97;;;8.00;87.50;;;;;;5014728;28;20514;-69
2021/04/13 11:46:01;;;;;;;13.33;3.60;;;8.00;87.00;;;;;;5015243;28;20458;-69
2021/04/13 11:48:46;;;;;;;5.43;2.30;;;8.20;86.80;;;;;;5015338;28;20443;-69
2021/04/13 11:51:19;;;;;;;11.57;2.90;;;8.20;86.20;;;;;;5015028;28;20907;-69
2021/04/13 11:53:48;;;;;;;8.23;3.23;;;8.60;86.70;;;;;;5014027;28;20914;-69
2021/04/13 11:56:35;;;;;;;7.93;3.17;;;8.80;86.20;;;;;;5012824;28;20918;-69
2021/04/13 11:59:13;;;;;;;5.10;2.93;;;8.80;83.50;;;;;;5014133;28;20960;-69
2021/04/13 12:01:42;;;;;;;9.93;3.20;;;8.80;84.60;;;;;;5032830;28;20427;-69
2021/04/13 12:04:11;;;;;;;7.73;3.50;;;8.70;86.20;;;;;;5032456;28;20874;-69
2021/04/13 12:07:05;;;;;;;6.80;3.20;;;8.50;86.70;;;;;;5013800;28;20422;-69
2021/04/13 12:09:45;;;;;;;9.17;3.43;;;8.20;87.40;;;;;;5015133;28;20815;-69
2021/04/13 12:12:29;;;;;;;13.97;3.90;;;8.20;87.50;;;;;;5014528;28;20495;-69
2021/04/13 12:14:57;;;;;;;10.20;3.43;;;8.20;86.40;;;;;;5015026;28;20450;-69
2021/04/13 12:17:40;;;;;;;6.10;2.97;;;8.30;86.00;;;;;;5014537;28;20426;-68
2021/04/13 12:20:18;;;;;;;8.30;6.30;;;8.90;85.20;;;;;;5032326;28;20498;-69
2021/04/13 12:22:44;;;;;;;3.33;2.43;;;9.70;81.60;;;;;;5032219;28;20498;-69
2021/04/13 12:25:42;;;;;;;15.90;6.60;;;9.90;79.00;;;;;;5014366;28;20459;-69
2021/04/13 12:28:47;;;;;;;7.57;3.90;;;9.70;80.10;;;;;;5014302;28;20768;-70
2021/04/13 12:31:23;;;;;;;5.03;2.80;;;9.50;81.20;;;;;;5000583;28;20431;-69
2021/04/13 12:33:52;;;;;;;4.00;3.00;;;9.20;81.60;;;;;;5014472;28;20833;-70
2021/04/13 12:36:42;;;;;;;7.43;4.53;;;9.10;82.90;;;;;;5013924;28;20411;-69
2021/04/13 12:39:10;;;;;;;5.80;3.03;;;9.10;83.30;;;;;;5031989;28;20439;-69
2021/04/13 12:41:58;;;;;;;7.97;4.60;;;9.50;81.10;;;;;;5031982;28;20438;-69
2021/04/13 12:44:27;;;;;;;8.20;4.53;;;9.90;78.60;;;;;;4991477;28;21013;-70
2021/04/13 12:47:00;;;;;;;7.27;3.40;;;10.40;77.90;;;;;;4998271;28;20415;-70
2021/04/13 12:49:33;;;;;;;6.77;3.80;;;10.50;78.80;;;;;;5013700;28;20415;-70
2021/04/13 12:52:07;;;;;;;10.60;6.27;;;10.00;79.30;;;;;;5031617;28;20443;-70
2021/04/13 12:54:37;;;;;;;5.43;3.50;;;9.70;81.10;;;;;;5031851;28;20415;-69
2021/04/13 12:57:12;;;;;;;19.17;9.63;;;9.40;82.10;;;;;;5013914;28;20423;-69
2021/04/13 12:59:38;;;;;;;7.00;4.10;;;9.10;82.70;;;;;;5013762;28;20410;-69
2021/04/13 13:02:07;;;;;;;7.30;4.57;;;9.00;82.00;;;;;;5031656;28;20510;-69
2021/04/13 13:04:41;;;;;;;4.93;3.57;;;9.20;80.40;;;;;;5013999;28;20483;-69
2021/04/13 13:07:19;;;;;;;10.60;5.40;;;10.00;81.10;;;;;;5010608;28;20412;-69
2021/04/13 13:09:45;;;;;;;5.13;2.90;;;10.80;80.00;;;;;;5011322;28;20495;-70
2021/04/13 13:12:33;;;;;;;12.97;6.23;;;11.30;77.80;;;;;;5013539;28;20539;-70
2021/04/13 13:15:10;;;;;;;6.90;4.00;;;11.40;74.70;;;;;;5024904;28;20196;-70
2021/04/13 13:17:41;;;;;;;5.90;3.30;;;11.60;74.80;;;;;;5030958;28;20403;-70
2021/04/13 13:20:28;;;;;;;6.13;3.60;;;11.50;74.20;;;;;;5030392;28;20403;-69
2021/04/13 13:22:55;;;;;;;7.53;4.60;;;11.60;75.20;;;;;;5012727;28;20427;-69
2021/04/13 13:25:23;;;;;;;6.97;4.27;;;11.00;74.40;;;;;;5030301;28;20485;-69
2021/04/13 13:27:49;;;;;;;5.63;4.10;;;10.50;76.50;;;;;;5012780;28;20925;-68
2021/04/13 13:30:17;;;;;;;7.70;4.70;;;10.30;77.10;;;;;;5030093;28;20438;-69
2021/04/13 13:32:43;;;;;;;7.30;3.40;;;10.30;77.60;;;;;;5012744;28;20417;-68
2021/04/13 13:35:14;;;;;;;5.33;3.23;;;10.20;78.10;;;;;;5030480;28;20415;-69
2021/04/13 13:38:00;;;;;;;9.60;3.70;;;10.00;78.10;;;;;;5030600;28;20969;-69
2021/04/13 13:40:28;;;;;;;11.23;3.57;;;10.40;78.80;;;;;;5029748;28;20461;-71